createdAt,value
2023-04-24T00:00:24.644Z,2.90
2023-04-24T00:02:52.250Z,3.95
2023-04-24T00:05:20.934Z,2.97
2023-04-24T00:07:48.118Z,3.40
2023-04-24T00:10:15.672Z,3.20
2023-04-24T00:12:42.877Z,3.58
2023-04-24T00:15:10.609Z,3.15
2023-04-24T00:17:38.300Z,2.97
2023-04-24T00:20:07.874Z,2.90
2023-04-24T00:22:35.198Z,3.30
2023-04-24T00:25:02.499Z,3.35
2023-04-24T00:27:29.782Z,3.90
2023-04-24T00:29:57.274Z,2.90
2023-04-24T00:32:24.750Z,3.65
2023-04-24T00:34:51.947Z,2.80
2023-04-24T00:37:19.132Z,3.50
2023-04-24T00:39:46.393Z,2.80
2023-04-24T00:42:13.659Z,2.60
2023-04-24T00:44:41.050Z,3.97
2023-04-24T00:47:08.485Z,3.70
2023-04-24T00:49:36.467Z,2.72
2023-04-24T00:52:08.539Z,2.67
2023-04-24T00:54:36.519Z,2.75
2023-04-24T00:57:04.204Z,2.85
2023-04-24T00:59:31.873Z,3.75
2023-04-24T01:01:59.443Z,2.72
2023-04-24T01:04:27.324Z,3.28
2023-04-24T01:06:56.340Z,3.17
2023-04-24T01:09:24.721Z,3.72
2023-04-24T01:11:52.215Z,2.85
2023-04-24T01:14:19.533Z,3.20
2023-04-24T01:16:47.600Z,3.10
2023-04-24T01:19:16.493Z,2.88
2023-04-24T01:21:44.283Z,3.13
2023-04-24T01:24:11.784Z,3.20
2023-04-24T01:26:39.398Z,3.03
2023-04-24T01:29:06.896Z,3.15
2023-04-24T01:31:35.563Z,3.05
2023-04-24T01:34:03.694Z,2.92
2023-04-24T01:36:32.632Z,3.17
2023-04-24T01:38:59.944Z,2.80
2023-04-24T01:41:27.587Z,3.22
2023-04-24T01:43:55.033Z,3.20
2023-04-24T01:46:23.671Z,3.00
2023-04-24T01:48:52.231Z,3.00
2023-04-24T01:51:20.708Z,2.58
2023-04-24T01:53:48.009Z,3.17
2023-04-24T01:56:15.328Z,3.03
2023-04-24T01:58:42.810Z,2.72
2023-04-24T02:01:10.246Z,2.97
2023-04-24T02:03:37.778Z,2.85
2023-04-24T02:06:05.338Z,2.63
2023-04-24T02:08:32.692Z,3.25
2023-04-24T02:10:59.871Z,3.33
2023-04-24T02:13:27.127Z,2.85
2023-04-24T02:15:54.313Z,2.70
2023-04-24T02:18:21.687Z,2.97
2023-04-24T02:20:48.933Z,2.58
2023-04-24T02:23:16.230Z,3.13
2023-04-24T02:25:43.512Z,2.92
2023-04-24T02:28:10.806Z,3.03
2023-04-24T02:30:38.005Z,2.85
2023-04-24T02:33:05.474Z,2.70
2023-04-24T02:35:32.933Z,3.67
2023-04-24T02:38:00.418Z,2.47
2023-04-24T02:40:27.652Z,3.00
2023-04-24T02:42:54.894Z,2.58
2023-04-24T02:45:22.204Z,2.30
2023-04-24T02:47:49.523Z,2.72
2023-04-24T02:50:16.791Z,2.78
2023-04-24T02:52:44.247Z,3.03
2023-04-24T02:55:11.592Z,2.65
2023-04-24T02:57:38.964Z,2.42
2023-04-24T03:00:08.221Z,2.90
2023-04-24T03:02:35.732Z,3.00
2023-04-24T03:05:03.457Z,2.60
2023-04-24T03:07:30.750Z,3.28
2023-04-24T03:10:00.431Z,2.90
2023-04-24T03:12:27.674Z,2.75
2023-04-24T03:14:54.866Z,2.65
2023-04-24T03:17:22.214Z,2.95
2023-04-24T03:19:49.629Z,2.70
2023-04-24T03:22:17.079Z,2.75
2023-04-24T03:24:44.298Z,2.67
2023-04-24T03:27:11.826Z,2.85
2023-04-24T03:29:56.623Z,3.15
2023-04-24T03:32:30.334Z,3.22
2023-04-24T03:34:57.622Z,3.15
2023-04-24T03:37:25.109Z,2.80
2023-04-24T03:40:03.387Z,2.92
2023-04-24T03:42:30.924Z,2.05
2023-04-24T03:44:58.162Z,2.70
2023-04-24T03:47:31.059Z,2.65
2023-04-24T03:50:01.908Z,2.55
2023-04-24T03:52:29.624Z,3.17
2023-04-24T03:54:56.950Z,2.80
2023-04-24T03:57:25.875Z,2.50
2023-04-24T04:00:22.600Z,2.70
2023-04-24T04:03:02.383Z,2.70
2023-04-24T04:05:30.535Z,2.95
2023-04-24T04:07:57.991Z,2.92
2023-04-24T04:10:25.456Z,2.90
2023-04-24T04:12:52.642Z,2.65
2023-04-24T04:15:20.021Z,3.25
2023-04-24T04:17:47.962Z,3.35
2023-04-24T04:20:15.213Z,3.22
2023-04-24T04:22:44.492Z,3.40
2023-04-24T04:25:15.958Z,2.95
2023-04-24T04:27:44.134Z,4.10
2023-04-24T04:30:13.820Z,4.03
2023-04-24T04:32:51.218Z,3.55
2023-04-24T04:35:18.781Z,3.60
2023-04-24T04:37:46.808Z,3.33
2023-04-24T04:40:28.183Z,3.50
2023-04-24T04:43:01.482Z,3.42
2023-04-24T04:45:35.522Z,3.55
2023-04-24T04:48:21.528Z,3.42
2023-04-24T04:50:48.863Z,3.63
2023-04-24T04:53:16.282Z,3.60
2023-04-24T04:55:43.702Z,3.40
2023-04-24T04:58:15.067Z,3.33
2023-04-24T05:00:42.520Z,3.85
2023-04-24T05:03:21.199Z,4.00
2023-04-24T05:05:54.863Z,3.50
2023-04-24T05:10:52.592Z,3.88
2023-04-24T05:13:28.306Z,3.78
2023-04-24T05:16:06.897Z,4.20
2023-04-24T05:18:35.337Z,4.05
2023-04-24T05:21:03.006Z,4.07
2023-04-24T05:23:30.378Z,4.20
2023-04-24T05:25:58.676Z,4.28
2023-04-24T05:28:29.358Z,4.57
2023-04-24T05:31:05.717Z,4.68
2023-04-24T05:33:33.141Z,5.10
2023-04-24T05:36:00.563Z,5.25
2023-04-24T05:38:28.417Z,4.60
2023-04-24T05:40:55.830Z,4.65
2023-04-24T05:43:23.109Z,4.72
2023-04-24T05:45:50.835Z,5.13
2023-04-24T05:48:19.162Z,4.57
2023-04-24T05:50:48.294Z,4.78
2023-04-24T05:53:15.666Z,5.10
2023-04-24T05:55:43.044Z,5.07
2023-04-24T05:58:10.477Z,5.25
2023-04-24T06:00:40.235Z,5.70
2023-04-24T06:03:10.221Z,5.38
2023-04-24T06:05:38.287Z,5.53
2023-04-24T06:08:05.732Z,5.75
2023-04-24T06:10:37.065Z,6.35
2023-04-24T06:13:05.592Z,5.50
2023-04-24T06:15:34.493Z,5.90
2023-04-24T06:18:08.593Z,5.57
2023-04-24T06:20:37.248Z,5.60
2023-04-24T06:23:04.654Z,5.88
2023-04-24T06:25:34.219Z,6.35
2023-04-24T06:28:02.622Z,6.55
2023-04-24T06:30:31.416Z,6.20
2023-04-24T06:33:03.102Z,6.47
2023-04-24T06:35:39.293Z,6.97
2023-04-24T06:38:07.002Z,7.32
2023-04-24T06:40:34.552Z,6.93
2023-04-24T06:43:03.778Z,7.47
2023-04-24T06:45:31.170Z,6.97
2023-04-24T06:47:58.557Z,7.30
2023-04-24T06:50:26.139Z,6.95
2023-04-24T06:52:53.684Z,6.32
2023-04-24T06:55:20.934Z,6.55
2023-04-24T06:57:48.231Z,7.13
2023-04-24T07:00:17.089Z,7.18
2023-04-24T07:02:45.059Z,6.63
2023-04-24T07:05:13.772Z,7.38
2023-04-24T07:07:41.281Z,7.68
2023-04-24T07:10:09.588Z,7.80
2023-04-24T07:12:37.081Z,7.70
2023-04-24T07:15:06.444Z,8.23
2023-04-24T07:17:33.661Z,8.50
2023-04-24T07:20:01.031Z,8.45
2023-04-24T07:22:28.306Z,9.15
2023-04-24T07:24:55.820Z,8.15
2023-04-24T07:27:23.123Z,9.45
2023-04-24T07:29:51.694Z,9.52
2023-04-24T07:32:19.209Z,8.98
2023-04-24T07:34:46.927Z,8.52
2023-04-24T07:37:14.277Z,9.18
2023-04-24T07:39:42.448Z,9.23
2023-04-24T07:42:10.047Z,8.50
2023-04-24T07:44:37.552Z,8.80
2023-04-24T07:47:04.849Z,9.00
2023-04-24T07:49:32.199Z,8.95
2023-04-24T07:52:01.459Z,8.85
2023-04-24T07:54:29.623Z,9.87
2023-04-24T07:56:56.990Z,8.93
2023-04-24T07:59:24.263Z,9.05
2023-04-24T08:01:51.704Z,10.10
2023-04-24T08:04:19.552Z,9.85
2023-04-24T08:06:48.635Z,10.38
2023-04-24T08:09:16.112Z,9.20
2023-04-24T08:11:43.391Z,9.90
2023-04-24T08:14:10.808Z,9.77
2023-04-24T08:16:38.221Z,9.85
2023-04-24T08:19:05.474Z,10.05
2023-04-24T08:21:35.877Z,9.93
2023-04-24T08:24:06.189Z,9.68
2023-04-24T08:26:33.487Z,9.73
2023-04-24T08:29:00.780Z,10.25
2023-04-24T08:31:28.126Z,10.43
2023-04-24T08:33:55.440Z,10.45
2023-04-24T08:36:23.817Z,10.20
2023-04-24T08:38:54.095Z,10.65
2023-04-24T08:41:22.299Z,9.55
2023-04-24T08:43:50.871Z,9.75
2023-04-24T08:46:20.092Z,9.90
2023-04-24T08:48:47.891Z,10.30
2023-04-24T08:51:15.253Z,10.60
2023-04-24T08:53:42.664Z,10.95
2023-04-24T08:56:10.316Z,11.55
2023-04-24T08:58:38.201Z,10.80
2023-04-24T09:01:05.919Z,10.98
2023-04-24T09:03:34.651Z,9.93
2023-04-24T09:06:02.334Z,9.68
2023-04-24T09:08:30.869Z,9.05
2023-04-24T09:10:59.568Z,9.45
2023-04-24T09:13:27.605Z,9.60
2023-04-24T09:15:55.329Z,10.07
2023-04-24T09:18:22.758Z,9.77
2023-04-24T09:21:09.388Z,9.95
2023-04-24T09:23:36.938Z,8.98
2023-04-24T09:26:07.610Z,8.95
2023-04-24T09:28:40.558Z,9.38
2023-04-24T09:31:16.903Z,9.60
2023-04-24T09:33:58.446Z,10.25
2023-04-24T09:36:42.097Z,9.43
2023-04-24T09:39:14.769Z,9.82
2023-04-24T09:41:52.626Z,9.02
2023-04-24T09:44:24.267Z,10.35
2023-04-24T09:46:56.111Z,9.23
2023-04-24T09:49:25.768Z,9.75
2023-04-24T09:51:54.065Z,9.18
2023-04-24T09:54:22.771Z,9.57
2023-04-24T09:56:51.710Z,9.40
2023-04-24T09:59:20.420Z,10.10
2023-04-24T10:01:49.668Z,8.98
2023-04-24T10:04:25.485Z,9.48
2023-04-24T10:06:54.756Z,9.50
2023-04-24T10:09:27.404Z,10.63
2023-04-24T10:11:55.983Z,10.90
2023-04-24T10:14:25.148Z,9.70
2023-04-24T10:16:55.158Z,9.70
2023-04-24T10:19:24.046Z,8.85
2023-04-24T10:21:51.302Z,9.95
2023-04-24T10:24:21.582Z,17.60
2023-04-24T10:26:49.442Z,32.42
2023-04-24T10:29:20.096Z,31.87
2023-04-24T10:31:48.015Z,27.33
2023-04-24T10:34:17.506Z,40.90
2023-04-24T10:36:50.955Z,42.93
2023-04-24T10:39:18.787Z,23.42
2023-04-24T10:41:47.466Z,18.45
2023-04-24T10:44:16.761Z,12.85
2023-04-24T10:46:46.482Z,10.98
2023-04-24T10:49:13.918Z,12.30
2023-04-24T10:51:49.092Z,13.82
2023-04-24T10:54:30.926Z,15.38
2023-04-24T10:57:23.325Z,12.57
2023-04-24T10:59:52.086Z,8.13
2023-04-24T11:02:19.721Z,8.05
2023-04-24T11:04:47.444Z,8.73
2023-04-24T11:07:14.898Z,8.13
2023-04-24T11:09:44.260Z,8.20
2023-04-24T11:12:14.954Z,8.00
2023-04-24T11:15:11.726Z,7.90
2023-04-24T11:17:40.925Z,8.00
2023-04-24T11:20:25.590Z,7.93
2023-04-24T11:22:56.287Z,7.50
2023-04-24T11:25:24.069Z,6.78
2023-04-24T11:27:51.562Z,7.88
2023-04-24T11:30:20.686Z,13.20
2023-04-24T11:32:54.205Z,6.67
2023-04-24T11:35:26.039Z,6.82
2023-04-24T11:40:25.942Z,6.43
2023-04-24T11:42:56.427Z,6.82
2023-04-24T11:45:28.322Z,8.63
2023-04-24T11:47:55.746Z,8.40
2023-04-24T11:50:24.570Z,6.10
2023-04-24T11:52:52.057Z,6.75
2023-04-24T11:55:19.814Z,6.40
2023-04-24T11:57:51.458Z,6.97
2023-04-24T12:00:23.775Z,6.10
2023-04-24T12:02:51.711Z,5.82
2023-04-24T12:05:28.101Z,17.23
2023-04-24T12:07:55.849Z,10.38
2023-04-24T12:10:24.686Z,5.78
2023-04-24T12:12:52.766Z,5.10
2023-04-24T12:15:21.838Z,4.88
2023-04-24T12:17:49.450Z,5.03
2023-04-24T12:20:19.447Z,4.05
2023-04-24T12:22:55.886Z,4.97
2023-04-24T12:25:28.123Z,4.40
2023-04-24T12:27:56.403Z,4.10
2023-04-24T12:30:29.446Z,6.00
2023-04-24T12:32:59.148Z,4.20
2023-04-24T12:35:28.857Z,3.83
2023-04-24T12:37:56.332Z,3.88
2023-04-24T12:40:26.426Z,3.45
2023-04-24T12:45:24.981Z,3.25
2023-04-24T12:47:52.319Z,3.63
2023-04-24T12:50:19.919Z,3.92
2023-04-24T12:52:47.422Z,3.63
2023-04-24T12:55:14.790Z,3.40
2023-04-24T12:57:42.205Z,3.58
2023-04-24T13:00:10.134Z,3.25
2023-04-24T13:02:37.803Z,3.85
2023-04-24T13:05:05.620Z,2.97
2023-04-24T13:07:32.825Z,3.25
2023-04-24T13:10:00.156Z,3.15
2023-04-24T13:12:27.647Z,3.33
2023-04-24T13:14:55.107Z,3.13
2023-04-24T13:17:22.874Z,3.60
2023-04-24T13:19:51.247Z,2.92
2023-04-24T13:22:21.811Z,2.30
2023-04-24T13:24:50.085Z,2.85
2023-04-24T13:27:17.801Z,2.45
2023-04-24T13:29:45.074Z,2.53
2023-04-24T13:32:12.682Z,2.50
2023-04-24T13:34:40.053Z,2.47
2023-04-24T13:37:09.052Z,3.00
2023-04-24T13:39:36.708Z,2.20
2023-04-24T13:42:05.054Z,2.33
2023-04-24T13:44:32.701Z,2.33
2023-04-24T13:47:00.051Z,3.03
2023-04-24T13:49:28.180Z,2.45
2023-04-24T13:51:56.755Z,2.38
2023-04-24T13:54:27.337Z,3.67
2023-04-24T13:56:54.731Z,2.80
2023-04-24T13:59:24.768Z,2.75
2023-04-24T14:01:52.155Z,1.88
2023-04-24T14:04:19.627Z,2.55
2023-04-24T14:06:47.037Z,2.55
2023-04-24T14:09:14.393Z,2.42
2023-04-24T14:11:41.953Z,1.73
2023-04-24T14:14:09.277Z,1.70
2023-04-24T14:16:36.864Z,2.20
2023-04-24T14:19:04.168Z,1.70
2023-04-24T14:21:31.730Z,2.20
2023-04-24T14:23:59.011Z,1.70
2023-04-24T14:26:26.296Z,1.75
2023-04-24T14:29:01.105Z,1.60
2023-04-24T14:31:34.865Z,1.85
2023-04-24T14:34:02.165Z,1.55
2023-04-24T14:36:29.480Z,1.55
2023-04-24T14:38:56.813Z,1.60
2023-04-24T14:41:24.084Z,1.65
2023-04-24T14:43:51.507Z,1.50
2023-04-24T14:46:19.192Z,1.30
2023-04-24T14:48:46.727Z,1.90
2023-04-24T14:51:13.967Z,2.25
2023-04-24T14:53:41.688Z,2.13
2023-04-24T14:56:09.056Z,2.33
2023-04-24T14:58:36.435Z,1.60
2023-04-24T15:01:03.744Z,1.75
2023-04-24T15:03:32.228Z,2.03
2023-04-24T15:05:59.797Z,1.80
2023-04-24T15:08:27.004Z,2.15
2023-04-24T15:10:54.447Z,2.10
2023-04-24T15:13:21.757Z,2.28
2023-04-24T15:15:48.986Z,1.98
2023-04-24T15:18:16.275Z,2.58
2023-04-24T15:20:43.737Z,2.10
2023-04-24T15:23:11.307Z,1.98
2023-04-24T15:25:39.225Z,6.10
2023-04-24T15:28:06.984Z,2.00
2023-04-24T15:30:34.561Z,2.00
2023-04-24T15:33:02.859Z,2.10
2023-04-24T15:35:30.213Z,2.22
2023-04-24T15:37:57.678Z,2.00
2023-04-24T15:40:25.033Z,2.10
2023-04-24T15:42:52.355Z,1.83
2023-04-24T15:45:19.788Z,1.92
2023-04-24T15:47:47.655Z,2.10
2023-04-24T15:50:17.070Z,2.00
2023-04-24T15:52:44.574Z,2.10
2023-04-24T15:55:12.404Z,1.90
2023-04-24T15:57:40.478Z,2.30
2023-04-24T16:00:09.751Z,2.40
2023-04-24T16:02:40.396Z,2.10
2023-04-24T16:05:08.742Z,2.50
2023-04-24T16:07:37.644Z,3.20
2023-04-24T16:10:05.447Z,2.35
2023-04-24T16:12:32.746Z,2.40
2023-04-24T16:15:00.148Z,2.40
2023-04-24T16:17:27.412Z,3.30
2023-04-24T16:19:54.683Z,3.22
2023-04-24T16:22:22.222Z,2.65
2023-04-24T16:24:49.533Z,2.53
2023-04-24T16:27:16.831Z,2.58
2023-04-24T16:29:44.344Z,2.40
2023-04-24T16:32:11.614Z,2.60
2023-04-24T16:34:38.870Z,2.67
2023-04-24T16:37:06.800Z,2.78
2023-04-24T16:39:35.000Z,2.47
2023-04-24T16:42:02.540Z,2.50
2023-04-24T16:44:29.831Z,2.40
2023-04-24T16:46:57.430Z,3.03
2023-04-24T16:49:24.923Z,2.53
2023-04-24T16:51:52.048Z,3.28
2023-04-24T16:54:21.348Z,3.20
2023-04-24T16:56:49.196Z,2.90
2023-04-24T16:59:16.443Z,3.50
2023-04-24T17:01:43.638Z,3.10
2023-04-24T17:04:11.306Z,4.13
2023-04-24T17:06:38.589Z,3.63
2023-04-24T17:09:05.971Z,3.13
2023-04-24T17:11:33.173Z,3.03
2023-04-24T17:14:00.823Z,3.97
2023-04-24T17:16:29.001Z,3.70
2023-04-24T17:18:56.317Z,3.63
2023-04-24T17:21:23.697Z,3.30
2023-04-24T17:23:51.116Z,3.15
2023-04-24T17:26:18.406Z,3.40
2023-04-24T17:28:46.174Z,3.30
2023-04-24T17:31:13.747Z,2.95
2023-04-24T17:33:41.254Z,2.60
2023-04-24T17:36:08.649Z,3.28
2023-04-24T17:38:36.532Z,4.18
2023-04-24T17:41:03.885Z,4.53
2023-04-24T17:43:31.201Z,3.55
2023-04-24T17:46:01.926Z,3.95
2023-04-24T17:48:29.372Z,4.97
2023-04-24T17:50:56.914Z,12.55
2023-04-24T17:53:24.256Z,93.25
2023-04-24T17:55:51.564Z,89.55
2023-04-24T17:58:19.378Z,32.40
2023-04-24T18:00:46.971Z,23.20
2023-04-24T18:03:14.458Z,15.10
2023-04-24T18:05:41.888Z,10.93
2023-04-24T18:08:09.198Z,8.93
2023-04-24T18:10:36.686Z,8.00
2023-04-24T18:13:05.232Z,5.20
2023-04-24T18:15:33.085Z,5.43
2023-04-24T18:18:00.447Z,5.15
2023-04-24T18:20:27.770Z,5.70
2023-04-24T18:25:27.023Z,5.22
2023-04-24T18:27:55.893Z,4.80
2023-04-24T18:30:24.480Z,5.18
2023-04-24T18:32:53.377Z,5.15
2023-04-24T18:35:21.713Z,5.00
2023-04-24T18:37:49.869Z,5.15
2023-04-24T18:40:17.619Z,5.00
2023-04-24T18:42:45.055Z,11.85
2023-04-24T18:45:14.858Z,15.27
2023-04-24T18:47:43.268Z,9.75
2023-04-24T18:50:11.174Z,7.25
2023-04-24T18:52:38.643Z,5.55
2023-04-24T18:55:07.082Z,4.82
2023-04-24T18:57:34.627Z,4.88
2023-04-24T19:00:02.101Z,5.35
2023-04-24T19:02:29.628Z,6.18
2023-04-24T19:04:57.009Z,5.88
2023-04-24T19:07:24.440Z,13.45
2023-04-24T19:09:51.879Z,23.67
2023-04-24T19:12:20.966Z,16.38
2023-04-24T19:14:49.608Z,6.38
2023-04-24T19:17:23.308Z,4.43
2023-04-24T19:19:51.246Z,3.63
2023-04-24T19:22:20.454Z,4.13
2023-04-24T19:24:47.870Z,3.97
2023-04-24T19:27:15.359Z,3.70
2023-04-24T19:29:42.962Z,4.53
2023-04-24T19:32:10.386Z,3.55
2023-04-24T19:34:39.729Z,3.70
2023-04-24T19:39:35.280Z,3.70
2023-04-24T19:42:07.105Z,3.40
2023-04-24T19:44:35.037Z,3.20
2023-04-24T19:47:02.298Z,3.17
2023-04-24T19:49:29.638Z,3.75
2023-04-24T19:51:56.970Z,4.05
2023-04-24T19:54:24.714Z,3.97
2023-04-24T19:56:52.062Z,4.47
2023-04-24T19:59:19.504Z,4.30
2023-04-24T20:01:47.177Z,4.53
2023-04-24T20:04:14.553Z,5.50
2023-04-24T20:06:41.873Z,7.97
2023-04-24T20:09:09.966Z,4.95
2023-04-24T20:11:37.302Z,6.35
2023-04-24T20:14:04.775Z,6.30
2023-04-24T20:16:32.226Z,7.72
2023-04-24T20:18:59.676Z,6.30
2023-04-24T20:21:26.915Z,6.53
2023-04-24T20:23:54.226Z,6.50
2023-04-24T20:26:21.616Z,6.05
2023-04-24T20:28:49.216Z,5.57
2023-04-24T20:31:16.921Z,4.95
2023-04-24T20:33:45.584Z,5.63
2023-04-24T20:36:12.936Z,5.43
2023-04-24T20:38:40.171Z,5.38
2023-04-24T20:41:08.887Z,5.70
2023-04-24T20:43:36.545Z,5.25
2023-04-24T20:46:03.882Z,5.20
2023-04-24T20:48:31.491Z,4.65
2023-04-24T20:50:59.012Z,4.72
2023-04-24T20:53:26.320Z,5.18
2023-04-24T20:55:53.614Z,4.75
2023-04-24T20:58:22.064Z,4.70
2023-04-24T21:00:50.127Z,4.43
2023-04-24T21:03:18.918Z,4.30
2023-04-24T21:05:46.398Z,4.78
2023-04-24T21:08:13.904Z,4.35
2023-04-24T21:10:41.211Z,4.47
2023-04-24T21:13:08.900Z,3.85
2023-04-24T21:15:36.282Z,4.40
2023-04-24T21:18:04.181Z,4.32
2023-04-24T21:20:32.019Z,3.92
2023-04-24T21:22:59.243Z,4.50
2023-04-24T21:25:26.806Z,4.55
2023-04-24T21:27:54.337Z,3.50
2023-04-24T21:30:22.136Z,3.85
2023-04-24T21:32:49.464Z,3.95
2023-04-24T21:35:16.821Z,3.97
2023-04-24T21:37:44.294Z,4.03
2023-04-24T21:40:11.750Z,4.22
2023-04-24T21:42:39.610Z,4.45
2023-04-24T21:45:07.381Z,4.38
2023-04-24T21:47:34.726Z,4.00
2023-04-24T21:50:02.207Z,4.35
2023-04-24T21:52:29.447Z,4.00
2023-04-24T21:54:56.863Z,4.03
2023-04-24T21:57:24.165Z,4.45
2023-04-24T21:59:51.736Z,4.10
2023-04-24T22:02:19.160Z,4.20
2023-04-24T22:04:46.887Z,4.47
2023-04-24T22:07:14.977Z,4.32
2023-04-24T22:09:42.273Z,4.38
2023-04-24T22:12:09.924Z,4.03
2023-04-24T22:14:37.244Z,4.50
2023-04-24T22:17:04.902Z,4.10
2023-04-24T22:19:32.218Z,4.53
2023-04-24T22:21:59.518Z,5.35
2023-04-24T22:24:26.921Z,5.10
2023-04-24T22:26:54.159Z,5.22
2023-04-24T22:29:21.562Z,5.05
2023-04-24T22:31:49.284Z,5.20
2023-04-24T22:34:17.128Z,5.45
2023-04-24T22:36:44.422Z,5.20
2023-04-24T22:39:15.673Z,5.95
2023-04-24T22:41:43.247Z,6.10
2023-04-24T22:44:11.044Z,5.50
2023-04-24T22:46:38.414Z,4.95
2023-04-24T22:49:05.752Z,5.18
2023-04-24T22:51:35.795Z,5.55
2023-04-24T22:56:32.201Z,4.38
2023-04-24T22:58:59.937Z,3.88
2023-04-24T23:01:27.385Z,3.72
2023-04-24T23:03:55.100Z,3.72
2023-04-24T23:06:22.504Z,3.53
2023-04-24T23:08:49.784Z,3.10
2023-04-24T23:11:17.385Z,3.03
2023-04-24T23:13:44.684Z,2.38
2023-04-24T23:16:11.909Z,2.72
2023-04-24T23:18:39.333Z,2.35
2023-04-24T23:21:06.715Z,2.60
2023-04-24T23:23:34.045Z,2.30
2023-04-24T23:26:01.459Z,2.30
2023-04-24T23:28:28.671Z,2.55
2023-04-24T23:30:56.163Z,2.58
2023-04-24T23:33:23.516Z,2.85
2023-04-24T23:35:51.218Z,2.63
2023-04-24T23:38:18.457Z,2.78
2023-04-24T23:40:45.872Z,3.33
2023-04-24T23:43:13.164Z,3.03
2023-04-24T23:45:40.560Z,3.20
2023-04-24T23:48:07.967Z,2.80
2023-04-24T23:50:35.394Z,2.88
2023-04-24T23:53:02.705Z,3.25
2023-04-24T23:55:30.009Z,3.20
2023-04-24T23:57:57.423Z,3.00
